createdAt,value
2017-12-25T00:05:56.372Z,1004.39
2017-12-25T00:37:22.090Z,1004.19
2017-12-25T00:47:49.979Z,1004.07
2017-12-25T01:19:15.810Z,1004.09
2017-12-25T01:29:43.079Z,1004.05
2017-12-25T01:40:12.444Z,1004.02
2017-12-25T01:50:40.341Z,1004.07
2017-12-25T02:01:09.018Z,1003.77
2017-12-25T03:14:26.500Z,1003.46
2017-12-25T03:24:54.702Z,1003.50
2017-12-25T03:35:22.959Z,1003.50
2017-12-25T03:45:51.138Z,1003.34
2017-12-25T03:56:19.386Z,1003.21
2017-12-25T04:06:47.522Z,1003.10
2017-12-25T04:17:15.696Z,1003.07
2017-12-25T04:27:43.885Z,1003.04
2017-12-25T04:38:12.143Z,1003.01
2017-12-25T04:48:40.265Z,1002.86
2017-12-25T04:59:08.386Z,1002.74
2017-12-25T05:09:36.554Z,1002.63
2017-12-25T05:20:04.675Z,1002.44
2017-12-25T05:30:32.307Z,1002.51
2017-12-25T05:41:00.929Z,1002.33
2017-12-25T05:51:29.062Z,1002.48
2017-12-25T06:01:57.222Z,1002.40
2017-12-25T06:12:25.298Z,1002.53
2017-12-25T06:22:53.342Z,1002.45
2017-12-25T06:33:21.452Z,1002.35
2017-12-25T06:43:49.548Z,1002.21
2017-12-25T06:54:17.584Z,1002.16
2017-12-25T07:04:45.631Z,1002.09
2017-12-25T07:15:14.684Z,1001.94
2017-12-25T07:25:42.010Z,1002.01
2017-12-25T07:36:09.313Z,1002.03
2017-12-25T07:46:37.398Z,1002.01
2017-12-25T07:57:07.024Z,1001.99
2017-12-25T08:07:33.592Z,1001.93
2017-12-25T08:18:02.212Z,1001.93
2017-12-25T08:28:30.305Z,1001.96
2017-12-25T08:38:58.413Z,1001.95
2017-12-25T08:49:26.533Z,1001.80
2017-12-25T08:59:54.629Z,1001.71
2017-12-25T09:10:22.723Z,1001.80
2017-12-25T09:20:50.338Z,1001.76
2017-12-25T09:31:18.961Z,1001.69
2017-12-25T09:41:46.633Z,1001.68
2017-12-25T09:52:15.300Z,1001.53
2017-12-25T10:02:43.109Z,1001.64
2017-12-25T10:13:12.402Z,1001.64
2017-12-25T10:23:39.491Z,1001.35
2017-12-25T10:34:08.240Z,1001.06
2017-12-25T10:44:36.536Z,1001.24
2017-12-25T10:55:04.793Z,1001.10
2017-12-25T11:05:33.159Z,1000.57
2017-12-25T11:16:01.327Z,1000.52
2017-12-25T11:26:29.146Z,1000.44
2017-12-25T11:36:57.432Z,1000.22
2017-12-25T11:47:25.711Z,999.83
2017-12-25T11:57:54.016Z,999.76
2017-12-25T12:08:22.863Z,999.57
2017-12-25T12:18:51.224Z,999.39
2017-12-25T12:29:19.088Z,999.31
2017-12-25T12:39:47.897Z,999.29
2017-12-25T12:50:15.678Z,999.06
2017-12-25T13:00:44.850Z,999.04
2017-12-25T13:11:12.524Z,998.41
2017-12-25T13:21:40.200Z,998.55
2017-12-25T13:32:08.306Z,998.18
2017-12-25T13:42:36.456Z,998.17
2017-12-25T13:53:05.139Z,998.11
2017-12-25T14:03:32.648Z,998.06
2017-12-25T14:14:01.195Z,998.02
2017-12-25T14:24:28.697Z,997.98
2017-12-25T14:34:56.694Z,997.71
2017-12-25T14:45:24.925Z,997.47
2017-12-25T14:55:53.202Z,997.46
2017-12-25T15:06:20.914Z,997.58
2017-12-25T15:16:48.810Z,997.51
2017-12-25T15:27:16.678Z,997.29
2017-12-25T15:37:43.988Z,997.12
2017-12-25T15:48:12.311Z,997.05
2017-12-25T15:58:40.145Z,997.00
2017-12-25T16:09:07.911Z,996.85
2017-12-25T16:19:35.708Z,996.63
2017-12-25T16:30:03.500Z,996.61
2017-12-25T16:40:31.339Z,996.28
2017-12-25T16:51:00.143Z,996.34
2017-12-25T17:01:26.879Z,996.24
2017-12-25T17:22:22.492Z,995.90
2017-12-25T17:32:50.213Z,995.59
2017-12-25T17:43:17.995Z,995.67
2017-12-25T17:53:45.745Z,995.56
2017-12-25T18:04:13.542Z,995.58
2017-12-25T18:14:41.439Z,995.46
2017-12-25T18:35:36.867Z,995.30
2017-12-25T18:46:04.711Z,995.20
2017-12-25T19:07:00.481Z,995.04
2017-12-25T19:17:28.250Z,994.89
2017-12-25T19:38:22.728Z,994.79
2017-12-25T19:48:51.389Z,994.14
2017-12-25T19:59:18.889Z,994.14
2017-12-25T20:09:46.525Z,993.71
2017-12-25T20:20:14.158Z,993.82
2017-12-25T20:30:41.116Z,993.74
2017-12-25T20:41:08.784Z,993.67
2017-12-25T20:51:36.938Z,993.60
2017-12-25T21:02:04.597Z,993.68
2017-12-25T21:12:31.731Z,993.49
2017-12-25T21:22:59.867Z,993.36
2017-12-25T21:33:27.458Z,993.27
2017-12-25T21:43:54.553Z,993.07
2017-12-25T21:54:22.767Z,992.94
2017-12-25T22:04:49.721Z,992.99
2017-12-25T22:15:17.279Z,992.97
2017-12-25T22:25:44.787Z,992.74
2017-12-25T22:36:12.807Z,992.65
2017-12-25T22:46:39.820Z,992.70
2017-12-25T22:57:07.406Z,992.67
2017-12-25T23:07:35.324Z,992.51
2017-12-25T23:18:02.820Z,992.12
2017-12-25T23:28:30.479Z,992.23
2017-12-25T23:38:58.247Z,992.09
2017-12-25T23:49:25.287Z,992.18
2017-12-25T23:59:53.707Z,991.74
